Latest Weather Observations for Willis Island

IDQ60801

Issued at 12:35 pm EST Tuesday 16 September 2014 (issued every 30 minutes, with the page automatically refreshed every 10 minutes)

About weather observations | Map of weather stations | Latest weather observations for QLD | Other Formats
Station Details ID: 200283 Name: WILLIS ISLAND Lat: -16.29 Lon: 149.97 Height: 9.29 m
Data from the previous 72 hours. | See also: Recent months at Willis Island
Date/Time
EST
Temp
°C
App
Temp
°C
Dew
Point
Rel
Hum
%
Delta-T
°C
Wind Press
QNH
hPa
Press
MSL
hPa
Rain
since 9 am
mm
Dir
 
Spd
km/h
Gust
km/h
Spd
kts
Gust
kts
16/12:30pm 26.6 24.8 18.8 62 5.0 SE 26 30 14 16 1014.4 - 0.0
16/12:00pm 25.7 23.5 18.8 65 4.4 SE 28 32 15 17 1014.6 1014.6 0.0
16/11:30am 26.6 24.6 19.1 63 4.8 SE 28 33 15 18 1014.9 - 0.0
16/11:00am 26.9 24.4 18.9 61 5.1 SE 30 33 16 18 1015.2 - 0.0
16/10:30am 26.7 24.7 19.2 63 4.8 ESE 28 33 15 18 1015.2 - 0.0
16/10:00am 26.3 23.6 18.4 61 5.0 SE 30 33 16 18 1015.5 - 0.0
16/09:30am 26.3 24.1 18.8 63 4.8 SE 28 33 15 18 1015.8 - 0.0
16/09:00am 25.5 22.5 18.6 65 4.4 SE 32 37 17 20 1015.8 1015.8 0.0
16/08:30am 25.3 22.5 18.3 65 4.4 SE 30 35 16 19 1015.8 - 0.0
16/08:00am 24.9 22.1 18.1 66 4.3 SE 30 35 16 19 1015.5 - 0.0
16/07:30am 24.6 21.6 18.6 69 3.8 SE 32 37 17 20 1015.4 - 0.0
16/07:00am 24.2 22.0 18.7 71 3.5 SE 28 33 15 18 1014.9 - 0.0
16/06:30am 23.6 21.1 18.0 71 3.5 SE 28 33 15 18 1014.8 - 0.0
16/06:00am 23.5 21.1 18.2 72 3.3 SE 28 32 15 17 1014.5 1014.5 0.0
16/05:30am 23.3 20.9 18.2 73 3.2 SE 28 35 15 19 1014.1 - 0.0
16/05:00am 23.5 21.0 18.1 71 3.4 SE 28 32 15 17 1013.9 - 0.0
16/04:30am 23.5 20.7 18.1 71 3.4 SSE 30 35 16 19 1013.7 - 0.0
16/04:00am 23.4 20.9 18.1 72 3.3 SE 28 32 15 17 1013.5 - 0.0
16/03:30am 23.5 21.1 18.2 72 3.3 SSE 28 32 15 17 1013.4 - 0.0
16/03:00am 23.6 21.3 18.4 72 3.3 SE 28 33 15 18 1013.3 1013.3 0.0
16/02:30am 23.5 21.2 18.4 73 3.2 SE 28 32 15 17 1013.6 - 0.0
16/02:00am 23.7 21.3 19.0 75 3.0 SE 30 35 16 19 1013.7 - 0.0
16/01:30am 23.7 21.1 18.6 73 3.2 SE 30 33 16 18 1014.0 - 0.0
16/01:00am 23.7 21.1 18.6 73 3.2 ESE 30 35 16 19 1014.2 - 0.0
16/12:30am 23.7 21.1 18.6 73 3.2 ESE 30 33 16 18 1014.5 - 0.0
16/12:00am 23.7 21.3 19.1 75 2.9 ESE 30 35 16 19 1014.6 1014.6 0.0
 
Date/Time
EST
Temp
°C
App
Temp
°C
Dew
Point
Rel
Hum
%
Delta-T
°C
Wind Press
QNH
hPa
Press
MSL
hPa
Rain
since 9 am
mm
Dir
 
Spd
km/h
Gust
km/h
Spd
kts
Gust
kts
15/11:30pm 23.7 21.3 19.0 75 3.0 SE 30 37 16 20 1014.7 - 0.0
15/11:00pm 23.8 20.5 18.4 72 3.4 SE 33 37 18 20 1014.8 - 0.0
15/10:30pm 24.0 21.1 18.8 72 3.3 ESE 32 37 17 20 1014.8 - 0.0
15/10:00pm 24.0 21.4 19.5 76 2.9 SE 32 35 17 19 1014.8 - 0.0
15/09:30pm 23.9 20.9 19.0 74 3.1 SE 33 37 18 20 1014.7 - 0.0
15/09:00pm 23.9 21.3 19.4 76 2.9 SE 32 37 17 20 1014.6 1014.6 0.0
15/08:30pm 23.9 20.9 19.0 74 3.1 SE 33 37 18 20 1014.4 - 0.0
15/08:00pm 23.9 21.2 19.2 75 3.0 SE 32 37 17 20 1014.2 - 0.0
15/07:30pm 23.9 21.3 19.5 76 2.8 SE 32 35 17 19 1013.9 - 0.0
15/07:00pm 24.1 21.4 19.2 74 3.1 SE 32 39 17 21 1013.5 - 0.0
15/06:30pm 24.2 21.7 19.7 76 2.9 SE 32 37 17 20 1013.1 - 0.0
15/06:00pm 24.2 21.6 19.5 75 3.0 SE 32 37 17 20 1012.9 1012.9 0.0
15/05:30pm 24.4 21.8 19.4 73 3.2 SE 32 37 17 20 1012.6 - 0.0
15/05:00pm 24.6 22.3 19.3 72 3.4 SE 30 33 16 18 1012.6 - 0.0
15/04:30pm 25.0 23.2 19.6 72 3.5 SE 28 32 15 17 1012.4 - 0.0
15/04:00pm 25.8 24.1 19.9 70 3.8 SE 28 33 15 18 1012.5 - 0.0
15/03:30pm 25.8 23.9 19.4 67 4.1 SE 28 33 15 18 1012.5 - 0.0
15/03:00pm 25.8 23.3 18.9 65 4.4 SE 30 32 16 17 1012.5 1012.5 0.0
15/02:30pm 26.2 23.9 19.4 66 4.4 SE 30 33 16 18 1012.7 - 0.0
15/02:00pm 26.4 24.1 19.4 65 4.5 SE 30 35 16 19 1012.7 - 0.0
15/01:30pm 26.7 24.5 19.6 65 4.6 SE 30 33 16 18 1012.9 - 0.0
15/01:00pm 26.4 24.1 19.4 65 4.5 SE 30 33 16 18 1013.1 - 0.0
15/12:30pm 26.7 24.7 19.9 66 4.4 SE 30 35 16 19 1013.3 - 0.0
15/12:00pm 26.4 23.8 19.6 66 4.4 SE 32 35 17 19 1013.6 1013.6 0.0
15/11:30am 26.3 24.1 19.5 66 4.4 SE 30 33 16 18 1013.8 - 0.0
15/11:00am 26.4 24.3 19.8 67 4.3 SE 30 35 16 19 1014.4 - 0.0
15/10:30am 26.2 24.4 19.5 66 4.3 SE 28 35 15 19 1014.7 - 0.0
15/10:00am 26.1 24.2 19.3 66 4.4 SE 28 32 15 17 1015.0 - 0.0
15/09:30am 25.8 23.5 19.3 67 4.2 SE 30 35 16 19 1015.1 - 0.0
15/09:00am 25.5 23.1 19.1 67 4.1 SE 30 35 16 19 1015.2 1015.2 2.6
15/08:30am 25.2 22.3 18.8 67 4.1 SE 32 37 17 20 1015.0 - 2.6
15/08:00am 25.0 22.2 19.0 69 3.8 SE 32 35 17 19 1014.8 - 2.6
15/07:30am 24.5 21.3 18.5 69 3.8 ESE 33 37 18 20 1014.6 - 2.6
15/07:00am 24.0 20.9 18.5 71 3.5 ESE 32 37 17 20 1014.2 - 2.6
15/06:30am 23.7 20.2 17.9 70 3.6 ESE 33 41 18 22 1013.9 - 2.6
15/06:00am 23.4 19.3 17.4 69 3.7 ESE 35 41 19 22 1013.7 1013.7 2.6
15/05:30am 23.4 19.2 17.2 68 3.8 ESE 35 41 19 22 1013.6 - 2.6
15/05:00am 23.3 19.5 18.0 72 3.3 ESE 35 39 19 21 1013.2 - 2.6
15/04:30am 23.3 20.1 18.7 75 2.9 ESE 33 37 18 20 1013.3 - 2.6
15/04:00am 23.4 19.7 18.3 73 3.2 ESE 35 39 19 21 1013.3 - 2.6
15/03:30am 23.4 20.7 19.3 78 2.6 ESE 32 39 17 21 1013.1 - 2.6
15/03:00am 23.3 20.1 18.5 74 3.0 ESE 33 39 18 21 1013.3 1013.3 2.6
15/02:30am 23.3 20.1 18.5 74 3.0 ESE 33 39 18 21 1013.3 - 2.6
15/02:00am 23.3 19.7 18.5 74 3.0 ESE 35 39 19 21 1013.6 - 2.6
15/01:30am 22.2 20.7 19.5 85 1.7 SSE 26 39 14 21 1014.0 - 2.4
15/01:00am 23.1 21.7 19.7 81 2.2 SSE 26 32 14 17 1014.2 - 0.2
15/12:30am 23.2 21.0 19.6 80 2.3 SE 30 35 16 19 1014.3 - 0.2
15/12:00am 23.9 21.3 19.4 76 2.9 SE 32 37 17 20 1014.7 1014.7 0.2
 
Date/Time
EST
Temp
°C
App
Temp
°C
Dew
Point
Rel
Hum
%
Delta-T
°C
Wind Press
QNH
hPa
Press
MSL
hPa
Rain
since 9 am
mm
Dir
 
Spd
km/h
Gust
km/h
Spd
kts
Gust
kts
14/11:30pm 23.7 21.0 19.3 76 2.8 SE 32 37 17 20 1014.8 - 0.2
14/11:00pm 23.7 20.7 19.0 75 3.0 SE 33 39 18 21 1015.1 - 0.2
14/10:30pm 23.6 20.4 18.5 73 3.2 SE 33 39 18 21 1015.2 - 0.2
14/10:00pm 23.6 20.5 18.4 72 3.3 SE 32 37 17 20 1015.1 - 0.2
14/09:30pm 23.7 20.7 18.6 73 3.2 SE 32 37 17 20 1015.0 - 0.0
14/09:00pm 23.7 20.5 18.5 72 3.3 SE 33 39 18 21 1014.9 1014.9 0.0
14/08:30pm 23.9 20.4 18.7 72 3.3 SE 35 41 19 22 1014.9 - 0.0
14/08:00pm 23.9 20.5 18.2 70 3.6 ESE 33 39 18 21 1014.9 - 0.0
14/07:30pm 23.9 20.9 18.7 72 3.3 SE 32 37 17 20 1014.5 - 0.0
14/07:00pm 23.9 20.6 18.3 71 3.5 SE 33 39 18 21 1014.3 - 0.0
14/06:30pm 24.1 20.9 18.6 71 3.5 SE 33 37 18 20 1014.0 - 0.0
14/06:00pm 24.0 20.7 18.3 70 3.6 SE 33 41 18 22 1013.7 1013.7 0.0
14/05:30pm 24.1 20.5 17.7 67 4.0 SE 33 41 18 22 1013.6 - 0.0
14/05:00pm 24.4 20.9 18.0 67 4.0 SE 33 39 18 21 1013.3 - 0.0
14/04:30pm 24.8 21.5 18.3 67 4.1 SE 33 41 18 22 1013.2 - 0.0
14/04:00pm 25.2 20.7 17.3 61 4.9 SE 37 43 20 23 1013.1 - 0.0
14/03:30pm 25.4 21.2 17.2 60 5.1 SE 35 41 19 22 1013.0 - 0.0
14/03:00pm 25.4 21.4 17.6 62 4.9 SE 35 43 19 23 1013.0 1013.0 0.0
14/02:30pm 25.7 21.6 17.4 60 5.2 SE 35 44 19 24 1013.2 - 0.0
14/02:00pm 25.8 21.3 17.3 59 5.3 SE 37 44 20 24 1013.4 - 0.0
14/01:30pm 26.1 22.0 18.2 61 5.0 SE 37 43 20 23 1013.7 - 0.0
14/01:00pm 26.2 22.0 18.1 61 5.1 SE 37 43 20 23 1013.8 - 0.0
14/12:30pm 25.9 21.7 18.1 62 4.9 SE 37 44 20 24 1014.0 - 0.0
14/12:00pm 25.9 21.9 18.5 63 4.7 SE 37 43 20 23 1014.4 1014.4 0.0
14/11:30am 26.0 21.7 18.6 63 4.7 SE 39 46 21 25 1014.7 - 0.0
14/11:00am 26.0 21.5 18.3 62 4.9 SE 39 44 21 24 1015.2 - 0.0
14/10:30am 25.6 20.8 18.3 64 4.6 SE 41 46 22 25 1015.5 - 0.0
14/10:00am 25.7 21.5 19.0 66 4.3 SE 39 44 21 24 1016.0 - 0.0
14/09:30am 25.7 21.2 18.3 63 4.7 SE 39 46 21 25 1016.0 - 0.0
14/09:00am 24.8 20.3 18.3 67 4.1 SE 39 44 21 24 1015.8 1015.8 0.0
14/08:30am 25.1 19.7 17.9 64 4.5 SE 43 50 23 27 1015.6 - -
14/08:00am 24.6 18.8 17.5 64 4.4 SE 44 56 24 30 1015.2 - -
14/07:30am 23.9 18.5 17.8 68 3.8 SE 43 50 23 27 1015.1 - -
14/07:00am 24.1 18.8 18.2 69 3.7 SSE 43 52 23 28 1014.9 - -
14/06:30am 23.7 17.9 17.4 68 3.9 SE 44 50 24 27 1014.7 - -
14/06:00am 23.6 17.8 17.3 67 3.9 SE 44 54 24 29 1014.4 1014.4 -
14/05:30am 23.4 17.7 17.6 70 3.6 SE 44 54 24 29 1013.8 - -
14/05:00am 23.5 18.6 18.2 72 3.3 SE 41 48 22 26 1013.8 - -
14/04:30am 23.4 18.3 17.8 71 3.5 SE 41 48 22 26 1013.5 - -
14/04:00am 23.4 17.3 17.6 70 3.6 SE 46 54 25 29 1013.3 - -
14/03:30am 23.6 19.0 18.9 75 3.0 SSE 41 48 22 26 1013.2 - -
14/03:00am 23.5 17.7 17.5 69 3.7 SSE 44 52 24 28 1013.4 1013.4 0.0
14/02:30am 23.5 17.8 17.7 70 3.6 SE 44 50 24 27 1013.6 - -
14/02:00am 23.6 17.8 17.5 68 3.8 SSE 44 50 24 27 1014.0 - -
14/01:30am 23.7 17.8 17.2 67 4.0 SSE 44 50 24 27 1014.4 - -
14/01:00am 23.7 18.1 17.8 69 3.7 SSE 44 52 24 28 1014.8 - -
14/12:30am 23.7 18.1 17.4 68 3.9 SE 43 50 23 27 1015.3 - -
14/12:00am 23.8 17.3 16.6 64 4.4 SSE 46 56 25 30 1015.6 1015.6 -
 
Date/Time
EST
Temp
°C
App
Temp
°C
Dew
Point
Rel
Hum
%
Delta-T
°C
Wind Press
QNH
hPa
Press
MSL
hPa
Rain
since 9 am
mm
Dir
 
Spd
km/h
Gust
km/h
Spd
kts
Gust
kts
13/11:30pm 23.9 17.7 17.3 66 4.1 SE 46 52 25 28 1015.8 - -
13/11:00pm 23.8 17.8 16.8 65 4.3 SSE 44 54 24 29 1016.1 - -
13/10:30pm 23.9 18.5 17.8 68 3.8 SE 43 50 23 27 1016.1 - -
13/10:00pm 23.9 17.6 17.1 65 4.2 SSE 46 52 25 28 1016.3 - -
13/09:30pm 23.9 17.7 17.3 66 4.1 SSE 46 54 25 29 1016.5 - -
13/09:00pm 23.9 18.2 17.3 66 4.1 SSE 43 48 23 26 1016.5 1016.5 0.0
13/08:30pm 24.0 18.1 16.7 63 4.5 SSE 43 50 23 27 1016.4 - -
13/08:00pm 24.1 19.4 17.7 67 4.0 SSE 39 46 21 25 1016.3 - -
13/07:30pm 24.1 18.5 17.5 66 4.1 SE 43 48 23 26 1016.0 - -
13/07:00pm 24.1 19.0 17.7 67 4.0 SE 41 48 22 26 1015.6 - -
13/06:30pm 24.2 18.5 16.3 61 4.8 SE 41 48 22 26 1015.4 - -
13/06:00pm 24.2 18.7 16.7 63 4.6 SSE 41 46 22 25 1015.1 1015.1 -
13/05:30pm 24.4 18.8 16.6 61 4.8 SE 41 50 22 27 1014.8 - -
13/05:00pm 24.5 19.3 17.4 64 4.4 SSE 41 48 22 26 1014.6 - -
13/04:30pm 24.9 20.3 18.1 66 4.3 SSE 39 46 21 25 1014.5 - -
13/04:00pm 24.6 19.7 18.1 67 4.1 SSE 41 48 22 26 1014.3 - -
13/03:30pm 25.1 21.0 19.2 70 3.8 SSE 39 46 21 25 1014.1 - -
13/03:00pm 26.0 21.8 18.8 64 4.6 SSE 39 44 21 24 1014.0 1014.0 0.0
13/02:30pm 25.8 22.4 19.1 66 4.3 SE 35 44 19 24 1014.0 - -
13/02:00pm 26.0 22.6 19.1 65 4.4 SE 35 41 19 22 1014.4 - -
13/01:30pm 26.2 22.9 18.3 61 5.0 SE 33 39 18 21 1014.8 - -
13/01:00pm 26.0 22.6 18.1 61 5.0 SE 33 41 18 22 1015.0 - -

Other Formats:

Comma delimited format used in spreadsheet applications
http://www.bom.gov.au/fwo/IDQ60801/IDQ60801.94299.axf

JavaScript Object Notation format (JSON) in row-major order
http://www.bom.gov.au/fwo/IDQ60801/IDQ60801.94299.json